Time;durP1;ratioP1;P1;durP2;ratioP2;P2;SDS_P1;SDS_P2;PMS_P1;PMS_P2;Temp;Humidity;BMP_temperature;BMP_pressure;BME280_temperature;BME280_humidity;BME280_pressure;Samples;Min_cycle;Max_cycle;Signal;HPM_P1;HPM_P2
2024/03/08 00:01:13;;;;;;;;;43.50;34.00;;;;;8.64;60.66;100476.88;5067588;28;45446;-66
2024/03/08 00:03:40;;;;;;;;;50.50;34.00;;;;;8.61;60.67;100472.63;5067530;28;45222;-64
2024/03/08 00:06:05;;;;;;;;;48.75;32.75;;;;;8.58;60.91;100466.63;5062113;28;47141;-65
2024/03/08 00:08:31;;;;;;;;;38.25;29.50;;;;;8.52;60.71;100458.03;5062809;28;45407;-66
2024/03/08 00:10:56;;;;;;;;;47.75;35.75;;;;;8.51;60.99;100458.06;5060499;28;45414;-66
2024/03/08 00:13:22;;;;;;;;;48.25;35.00;;;;;8.50;60.85;100461.59;5069384;28;46768;-66
2024/03/08 00:15:47;;;;;;;;;45.75;32.50;;;;;8.46;61.16;100460.75;5068308;28;72328;-64
2024/03/08 00:18:12;;;;;;;;;44.25;33.50;;;;;8.44;61.03;100457.34;5061613;28;74866;-66
2024/03/08 00:20:38;;;;;;;;;41.75;35.00;;;;;8.42;61.08;100447.81;5062446;28;45459;-66
2024/03/08 00:23:03;;;;;;;;;44.75;33.25;;;;;8.39;61.06;100450.50;5066748;28;45362;-65
2024/03/08 00:25:28;;;;;;;;;50.25;34.00;;;;;8.34;61.11;100441.03;5072347;28;45424;-65
2024/03/08 00:27:57;;;;;;;;;49.00;35.00;;;;;8.35;61.27;100442.72;5062251;28;74509;-65
2024/03/08 00:30:23;;;;;;;;;42.25;34.00;;;;;8.33;61.44;100439.31;5072919;27;45897;-66
2024/03/08 00:32:48;;;;;;;;;46.75;34.25;;;;;8.29;61.35;100437.66;5065937;27;45156;-65
2024/03/08 00:35:14;;;;;;;;;44.50;34.75;;;;;8.28;61.55;100441.16;5062908;27;45698;-65
2024/03/08 00:37:41;;;;;;;;;43.75;32.00;;;;;8.28;61.62;100435.94;5072242;27;46245;-65
2024/03/08 00:40:08;;;;;;;;;50.75;36.25;;;;;8.25;61.90;100428.22;5065275;27;45435;-66
2024/03/08 00:42:34;;;;;;;;;45.50;36.00;;;;;8.24;61.84;100423.03;5062801;28;45367;-66
2024/03/08 00:44:59;;;;;;;;;48.50;34.25;;;;;8.21;61.69;100417.88;5065537;27;45478;-65
2024/03/08 00:47:25;;;;;;;;;48.75;34.00;;;;;8.20;61.88;100405.72;5066360;27;75535;-65
2024/03/08 00:49:50;;;;;;;;;49.25;35.00;;;;;8.17;61.94;100411.88;5071144;27;70652;-65
2024/03/08 00:52:17;;;;;;;;;42.00;32.50;;;;;8.14;62.07;100407.59;5069078;27;45437;-65
2024/03/08 00:54:43;;;;;;;;;56.75;37.00;;;;;8.12;62.33;100409.34;5077129;27;45620;-66
2024/03/08 00:57:08;;;;;;;;;50.25;37.00;;;;;8.12;62.36;100403.28;5069505;27;45229;-66
2024/03/08 00:59:33;;;;;;;;;49.50;36.00;;;;;8.11;62.59;100401.56;5065625;27;66428;-66
2024/03/08 01:02:00;;;;;;;;;50.00;35.25;;;;;8.11;62.45;100398.97;5074174;27;68307;-66
2024/03/08 01:04:27;;;;;;;;;41.00;31.50;;;;;8.11;62.55;100393.75;5067890;27;45575;-66
2024/03/08 01:06:53;;;;;;;;;47.25;35.00;;;;;8.09;62.50;100388.59;5074842;27;45288;-66
2024/03/08 01:09:18;;;;;;;;;52.50;34.25;;;;;8.08;62.47;100383.41;5069426;27;45269;-66
2024/03/08 01:11:43;;;;;;;;;48.50;34.25;;;;;8.08;62.59;100380.81;5064470;27;61373;-64
2024/03/08 01:14:09;;;;;;;;;48.00;33.75;;;;;8.05;62.51;100376.50;5065367;28;45556;-64
2024/03/08 01:16:34;;;;;;;;;42.25;34.50;;;;;7.99;62.79;100361.03;5072207;28;45816;-64
2024/03/08 01:19:00;;;;;;;;;46.25;35.50;;;;;7.96;62.89;100359.31;5064252;28;74039;-64
2024/03/08 01:21:25;;;;;;;;;41.50;33.25;;;;;7.93;63.01;100358.53;5060451;28;58144;-65
2024/03/08 01:23:51;;;;;;;;;41.50;32.25;;;;;7.90;63.16;100362.09;5072720;28;45481;-65
2024/03/08 01:26:16;;;;;;;;;51.25;34.25;;;;;7.90;63.46;100356.88;5059601;28;46067;-64
2024/03/08 01:28:41;;;;;;;;;46.25;36.00;;;;;7.90;63.37;100354.25;5067887;28;71214;-63
2024/03/08 01:31:07;;;;;;;;;46.75;36.00;;;;;7.88;63.51;100362.97;5075729;28;55404;-65
2024/03/08 01:33:32;;;;;;;;;42.75;31.75;;;;;7.85;63.12;100350.91;5067203;28;45147;-65
2024/03/08 01:35:58;;;;;;;;;42.25;33.25;;;;;7.81;63.38;100346.66;5067003;27;61130;-65
2024/03/08 01:38:23;;;;;;;;;45.50;36.75;;;;;7.79;63.63;100348.41;5067195;28;45287;-66
2024/03/08 01:40:49;;;;;;;;;51.25;34.25;;;;;7.77;63.74;100345.00;5061640;28;45416;-66
2024/03/08 01:43:22;;;;;;;;;48.50;37.00;;;;;7.74;63.84;100334.66;5062782;28;45220;-65
2024/03/08 01:45:48;;;;;;;;;45.50;34.50;;;;;7.72;63.93;100332.09;5062938;28;47036;-66
2024/03/08 01:48:14;;;;;;;;;51.75;37.00;;;;;7.69;64.18;100326.94;5072527;28;47298;-66
2024/03/08 01:50:40;;;;;;;;;50.50;36.50;;;;;7.69;63.98;100318.28;5061934;28;45436;-66
2024/03/08 01:53:07;;;;;;;;;49.25;36.25;;;;;7.66;63.99;100308.75;5065873;28;45371;-66
2024/03/08 01:55:35;;;;;;;;;54.00;36.25;;;;;7.65;64.34;100316.59;5063839;28;46097;-66
2024/03/08 01:58:01;;;;;;;;;45.75;36.25;;;;;7.63;64.31;100313.19;5061592;28;45835;-67
2024/03/08 02:00:26;;;;;;;;;52.50;36.00;;;;;7.60;64.33;100308.91;5061755;28;45304;-66
2024/03/08 02:02:54;;;;;;;;;47.00;35.50;;;;;7.57;64.43;100306.38;5064787;28;68632;-66
2024/03/08 02:05:20;;;;;;;;;51.00;37.75;;;;;7.53;64.56;100297.75;5063884;27;45506;-66
2024/03/08 02:07:45;;;;;;;;;41.75;32.25;;;;;7.51;64.62;100299.53;5069568;27;45317;-66
2024/03/08 02:10:12;;;;;;;;;41.00;32.25;;;;;7.47;64.69;100300.50;5062286;28;45958;-66
2024/03/08 02:12:38;;;;;;;;;54.50;35.25;;;;;7.45;64.85;100297.06;5078519;28;45375;-66
2024/03/08 02:15:03;;;;;;;;;46.00;33.50;;;;;7.44;64.89;100282.34;5062710;28;46134;-66
2024/03/08 02:17:30;;;;;;;;;54.25;36.75;;;;;7.44;64.96;100278.88;5063610;28;45378;-66
2024/03/08 02:19:56;;;;;;;;;51.75;39.25;;;;;7.37;65.09;100276.41;5060688;28;45275;-66
2024/03/08 02:22:21;;;;;;;;;49.25;35.00;;;;;7.38;65.18;100280.72;5060942;28;45570;-66
2024/03/08 02:24:47;;;;;;;;;43.25;35.25;;;;;7.39;65.16;100274.63;5057604;28;70032;-66
2024/03/08 02:27:12;;;;;;;;;55.75;34.25;;;;;7.36;65.47;100279.03;5067738;28;48017;-66
2024/03/08 02:29:40;;;;;;;;;41.50;35.00;;;;;7.34;65.45;100265.19;5064575;28;64375;-65
2024/03/08 02:32:06;;;;;;;;;43.25;35.75;;;;;7.33;65.62;100266.97;5060501;28;45407;-66
2024/03/08 02:34:31;;;;;;;;;42.50;35.50;;;;;7.32;65.48;100257.41;5071524;28;45256;-66
2024/03/08 02:36:57;;;;;;;;;43.50;33.25;;;;;7.31;65.73;100257.44;5058985;28;72154;-65
2024/03/08 02:39:22;;;;;;;;;44.25;32.25;;;;;7.30;65.84;100250.53;5064310;28;45664;-65
2024/03/08 02:41:47;;;;;;;;;52.50;37.50;;;;;7.28;65.85;100241.88;5073117;28;72148;-67
2024/03/08 02:44:12;;;;;;;;;52.75;35.75;;;;;7.25;65.33;100242.81;5060962;28;48681;-65
2024/03/08 02:46:38;;;;;;;;;45.75;31.25;;;;;7.20;65.78;100235.09;5063107;28;72432;-66
2024/03/08 02:49:03;;;;;;;;;50.50;34.25;;;;;7.18;65.95;100239.50;5069994;28;45767;-66
2024/03/08 02:51:29;;;;;;;;;53.50;36.75;;;;;7.19;66.05;100227.34;5067545;28;45341;-66
2024/03/08 02:53:54;;;;;;;;;55.50;36.50;;;;;7.16;65.94;100230.88;5070643;28;46080;-66
2024/03/08 02:56:21;;;;;;;;;47.50;36.00;;;;;7.15;65.85;100217.88;5061927;28;45419;-66
2024/03/08 02:58:48;;;;;;;;;51.50;35.25;;;;;7.13;66.07;100214.47;5059681;28;45536;-66
2024/03/08 03:01:14;;;;;;;;;49.75;35.00;;;;;7.10;66.12;100204.09;5062564;28;45335;-65
2024/03/08 03:03:40;;;;;;;;;52.50;37.25;;;;;7.07;66.00;100197.25;5077964;28;45472;-65
2024/03/08 03:06:07;;;;;;;;;48.50;35.75;;;;;7.07;66.16;100194.63;5066739;28;45419;-66
2024/03/08 03:08:32;;;;;;;;;47.75;36.00;;;;;7.06;66.49;100192.91;5059415;28;45311;-65
2024/03/08 03:10:57;;;;;;;;;43.75;35.25;;;;;7.04;66.59;100189.50;5059852;28;45566;-65
2024/03/08 03:13:23;;;;;;;;;56.75;35.50;;;;;7.04;66.62;100179.94;5068977;27;71659;-66
2024/03/08 03:15:48;;;;;;;;;47.00;33.75;;;;;7.04;66.51;100172.13;5067617;28;45445;-65
2024/03/08 03:18:14;;;;;;;;;50.00;35.75;;;;;7.01;66.64;100169.63;5072042;28;45287;-65
2024/03/08 03:20:42;;;;;;;;;48.75;35.25;;;;;7.01;66.75;100169.63;5065843;28;45357;-65
2024/03/08 03:23:08;;;;;;;;;40.00;27.75;;;;;6.95;66.94;100159.31;5071219;28;46472;-66
2024/03/08 03:25:35;;;;;;;;;40.25;32.50;;;;;7.00;66.66;100167.03;5062990;28;45381;-66
2024/03/08 03:28:01;;;;;;;;;49.00;35.50;;;;;6.97;66.83;100170.53;5065191;27;45220;-66
2024/03/08 03:30:26;;;;;;;;;51.50;33.75;;;;;6.96;66.87;100158.44;5075187;27;45438;-66
2024/03/08 03:32:54;;;;;;;;;53.75;34.50;;;;;6.95;66.81;100163.69;5072572;27;77355;-65
2024/03/08 03:35:23;;;;;;;;;45.50;35.75;;;;;6.92;67.00;100148.97;5074564;27;45456;-65
2024/03/08 03:38:05;;;;;;;;;50.25;37.25;;;;;6.91;67.06;100144.69;5073004;27;45275;-65
2024/03/08 03:40:31;;;;;;;;;47.00;31.75;;;;;6.91;66.97;100133.44;5073516;27;45453;-65
2024/03/08 03:42:56;;;;;;;;;48.75;34.25;;;;;6.92;67.21;100127.31;5072507;28;45975;-66
2024/03/08 03:45:22;;;;;;;;;56.75;33.75;;;;;6.91;67.07;100129.06;5066188;27;45305;-65
2024/03/08 03:47:47;;;;;;;;;42.50;31.00;;;;;6.89;67.25;100129.97;5071269;27;45389;-64
2024/03/08 03:50:13;;;;;;;;;51.25;35.00;;;;;6.92;67.22;100142.94;5076482;27;73279;-64
2024/03/08 03:52:38;;;;;;;;;58.00;37.25;;;;;6.89;67.33;100140.38;5065319;27;67530;-65
2024/03/08 03:55:04;;;;;;;;;51.67;36.33;;;;;6.91;67.29;100149.88;5065690;28;73019;-66
2024/03/08 03:57:33;;;;;;;;;53.75;35.75;;;;;6.91;67.33;100139.47;5068990;27;45531;-66
2024/03/08 03:59:58;;;;;;;;;49.25;32.00;;;;;6.87;67.24;100130.03;5067360;27;45366;-66
2024/03/08 04:02:26;;;;;;;;;50.25;33.75;;;;;6.88;67.19;100133.50;5093811;27;56912;-66
2024/03/08 04:04:51;;;;;;;;;48.25;34.00;;;;;6.86;67.48;100130.91;5072829;27;45262;-66
2024/03/08 04:07:17;;;;;;;;;47.00;30.25;;;;;6.88;67.43;100133.50;5077536;27;45295;-67
2024/03/08 04:09:42;;;;;;;;;38.75;33.50;;;;;6.84;67.32;100135.28;5067491;27;49340;-67
2024/03/08 04:12:09;;;;;;;;;56.75;34.50;;;;;6.82;67.40;100132.72;5069947;27;46163;-66
2024/03/08 04:14:35;;;;;;;;;48.00;35.75;;;;;6.81;67.65;100138.81;5062070;27;46030;-66
2024/03/08 04:17:00;;;;;;;;;46.00;35.25;;;;;6.82;67.58;100139.69;5074556;28;45263;-66
2024/03/08 04:19:27;;;;;;;;;51.25;36.75;;;;;6.83;67.40;100133.56;5067286;28;45392;-66
2024/03/08 04:21:53;;;;;;;;;49.25;34.75;;;;;6.82;67.51;100132.72;5068828;28;45745;-66
2024/03/08 04:24:18;;;;;;;;;48.75;35.00;;;;;6.82;67.33;100132.72;5076615;27;68779;-66
2024/03/08 04:26:43;;;;;;;;;42.50;34.75;;;;;6.79;67.37;100130.19;5075636;27;66057;-66
2024/03/08 04:29:09;;;;;;;;;48.75;35.25;;;;;6.78;67.45;100122.41;5070072;27;67607;-66
2024/03/08 04:31:34;;;;;;;;;47.50;36.00;;;;;6.77;67.62;100120.72;5075308;27;45341;-66
2024/03/08 04:33:59;;;;;;;;;54.00;37.25;;;;;6.76;67.71;100121.59;5070271;27;45355;-64
2024/03/08 04:36:25;;;;;;;;;52.75;34.75;;;;;6.75;67.63;100115.53;5067071;27;66627;-65
2024/03/08 04:38:51;;;;;;;;;49.25;31.50;;;;;6.74;67.61;100111.22;5072744;28;54993;-66
2024/03/08 04:41:17;;;;;;;;;44.25;35.50;;;;;6.73;67.38;100111.25;5075352;27;46396;-66
2024/03/08 04:43:42;;;;;;;;;40.00;28.50;;;;;6.69;67.45;100091.41;5066718;27;45750;-65
2024/03/08 04:46:08;;;;;;;;;52.00;36.25;;;;;6.64;67.34;100089.78;5067665;27;45439;-65
2024/03/08 04:48:36;;;;;;;;;50.75;36.00;;;;;6.61;67.77;100095.03;5073246;27;45460;-64
2024/03/08 04:51:02;;;;;;;;;37.25;28.50;;;;;6.58;67.89;100089.88;5075336;27;46212;-65
2024/03/08 04:53:28;;;;;;;;;49.75;33.25;;;;;6.56;68.05;100090.81;5074572;27;45697;-66
2024/03/08 04:55:54;;;;;;;;;49.50;35.75;;;;;6.57;68.21;100097.72;5067446;27;45419;-64
2024/03/08 04:58:20;;;;;;;;;43.00;34.50;;;;;6.55;68.30;100099.50;5062918;27;45478;-64
2024/03/08 05:00:46;;;;;;;;;49.25;35.00;;;;;6.56;68.29;100091.66;5072859;27;46105;-66
2024/03/08 05:03:11;;;;;;;;;51.50;36.50;;;;;6.58;68.30;100091.63;5068532;27;45378;-65
2024/03/08 05:05:36;;;;;;;;;41.75;35.25;;;;;6.57;68.19;100087.31;5067524;27;45289;-65
2024/03/08 05:08:02;;;;;;;;;51.25;33.25;;;;;6.53;68.31;100083.94;5075315;27;70274;-65
2024/03/08 05:10:28;;;;;;;;;45.50;33.25;;;;;6.52;68.35;100077.03;5067453;27;46395;-65
2024/03/08 05:12:53;;;;;;;;;42.00;33.00;;;;;6.51;68.42;100083.09;5069534;27;71037;-66
2024/03/08 05:15:20;;;;;;;;;46.25;33.50;;;;;6.51;68.28;100071.88;5074895;27;45324;-66
2024/03/08 05:17:45;;;;;;;;;49.50;37.00;;;;;6.51;68.42;100071.88;5063088;28;45470;-65
2024/03/08 05:20:13;;;;;;;;;58.00;38.00;;;;;6.49;68.38;100069.28;5070452;28;45704;-65
2024/03/08 05:22:39;;;;;;;;;56.00;35.25;;;;;6.49;68.63;100060.66;5065601;27;45494;-65
2024/03/08 05:25:04;;;;;;;;;52.00;36.00;;;;;6.49;68.65;100058.03;5069925;28;45526;-65
2024/03/08 05:27:30;;;;;;;;;46.75;35.00;;;;;6.48;68.69;100059.81;5075964;28;45373;-66
2024/03/08 05:29:55;;;;;;;;;53.50;35.00;;;;;6.47;68.68;100056.31;5078566;27;75570;-65
2024/03/08 05:32:20;;;;;;;;;59.25;38.00;;;;;6.47;68.94;100053.72;5073858;27;68376;-65
2024/03/08 05:34:46;;;;;;;;;53.00;38.00;;;;;6.45;68.62;100046.88;5071494;27;67797;-65
2024/03/08 05:37:12;;;;;;;;;52.00;36.00;;;;;6.44;68.51;100050.34;5072576;27;45405;-65
2024/03/08 05:39:37;;;;;;;;;55.25;36.75;;;;;6.42;68.79;100052.13;5070666;27;47645;-64
2024/03/08 05:42:02;;;;;;;;;46.50;33.75;;;;;6.41;68.69;100053.88;5070939;27;45424;-65
2024/03/08 05:44:31;;;;;;;;;50.50;36.50;;;;;6.39;68.62;100052.16;5071400;27;45478;-67
2024/03/08 05:46:56;;;;;;;;;49.00;37.00;;;;;6.37;68.84;100047.00;5071834;27;45291;-65
2024/03/08 05:49:21;;;;;;;;;47.25;36.00;;;;;6.39;68.77;100058.25;5073702;27;45617;-64
2024/03/08 05:51:47;;;;;;;;;41.75;32.50;;;;;6.36;68.81;100040.09;5072053;27;45464;-64
2024/03/08 05:54:13;;;;;;;;;47.00;35.75;;;;;6.39;68.75;100042.66;5066869;28;45352;-65
2024/03/08 05:56:42;;;;;;;;;54.00;33.50;;;;;6.38;68.89;100053.06;5068331;27;45889;-66
2024/03/08 05:59:07;;;;;;;;;36.25;30.25;;;;;6.37;68.88;100051.34;5065878;27;45504;-64
2024/03/08 06:01:35;;;;;;;;;44.25;33.50;;;;;6.35;68.92;100056.56;5064687;27;45292;-64
2024/03/08 06:04:01;;;;;;;;;44.00;33.75;;;;;6.34;68.90;100051.41;5061956;28;45173;-65
2024/03/08 06:06:26;;;;;;;;;46.75;35.00;;;;;6.33;68.83;100052.31;5077808;27;45292;-65
2024/03/08 06:08:52;;;;;;;;;51.50;36.75;;;;;6.31;69.00;100057.53;5068290;28;70491;-64
2024/03/08 06:11:20;;;;;;;;;47.50;35.50;;;;;6.31;69.05;100060.13;5073765;27;45327;-65
2024/03/08 06:13:45;;;;;;;;;49.75;35.00;;;;;6.33;69.05;100052.31;5080708;27;45276;-65
2024/03/08 06:16:11;;;;;;;;;51.75;35.50;;;;;6.32;69.02;100045.38;5074786;27;45398;-65
2024/03/08 06:18:37;;;;;;;;;47.75;34.00;;;;;6.30;68.82;100040.22;5071489;28;46898;-64
2024/03/08 06:21:06;;;;;;;;;59.00;38.75;;;;;6.29;68.87;100033.34;5067051;28;45449;-65
2024/03/08 06:23:38;;;;;;;;;47.25;35.25;;;;;6.26;68.80;100028.19;5072578;27;45363;-65
2024/03/08 06:26:07;;;;;;;;;45.50;32.25;;;;;6.27;68.85;100032.50;5066893;27;45512;-65
2024/03/08 06:28:32;;;;;;;;;53.50;37.25;;;;;6.23;68.81;100028.25;5070171;27;45973;-65
2024/03/08 06:30:58;;;;;;;;;53.50;38.75;;;;;6.19;68.82;100024.84;5063954;27;49420;-65
2024/03/08 06:33:26;;;;;;;;;49.25;38.00;;;;;6.22;68.78;100026.56;5078415;28;45360;-65
2024/03/08 06:35:51;;;;;;;;;37.50;28.50;;;;;6.20;68.74;100013.59;5066146;27;45539;-66
2024/03/08 06:38:17;;;;;;;;;40.50;35.00;;;;;6.19;68.86;100021.41;5064464;28;45489;-66
2024/03/08 06:40:42;;;;;;;;;54.25;37.50;;;;;6.16;68.95;100024.06;5076115;27;45287;-67
2024/03/08 06:43:07;;;;;;;;;58.25;39.25;;;;;6.19;69.25;100029.19;5079054;27;45258;-65
2024/03/08 06:45:33;;;;;;;;;46.50;37.75;;;;;6.17;69.05;100025.78;5072753;27;45533;-66
2024/03/08 06:47:58;;;;;;;;;52.25;38.25;;;;;6.20;69.38;100025.72;5075157;27;45425;-66
2024/03/08 06:50:23;;;;;;;;;47.25;34.75;;;;;6.23;69.40;100030.84;5073898;27;45507;-66
2024/03/08 06:52:53;;;;;;;;;51.67;36.00;;;;;6.23;69.27;100026.53;5072193;28;68155;-66
2024/03/08 06:55:19;;;;;;;;;53.00;37.50;;;;;6.26;69.36;100023.00;5065750;27;45535;-67
2024/03/08 06:57:45;;;;;;;;;46.75;35.25;;;;;6.31;69.17;100020.31;5078299;27;45935;-66
2024/03/08 07:00:13;;;;;;;;;59.25;37.25;;;;;6.32;69.27;100019.41;5078866;27;69462;-67
2024/03/08 07:02:39;;;;;;;;;53.25;37.00;;;;;6.33;69.40;100024.56;5080409;27;45390;-65
2024/03/08 07:05:05;;;;;;;;;49.50;37.00;;;;;6.35;69.24;100015.00;5071792;27;45178;-65
2024/03/08 07:07:31;;;;;;;;;50.75;33.50;;;;;6.38;68.82;100008.91;5073556;27;45702;-66
2024/03/08 07:09:57;;;;;;;;;51.75;34.75;;;;;6.40;68.84;100004.50;5075738;27;46083;-66
2024/03/08 07:12:23;;;;;;;;;61.50;43.25;;;;;6.41;69.01;99999.28;5065987;28;45390;-66
2024/03/08 07:14:48;;;;;;;;;68.25;47.00;;;;;6.45;69.14;100003.53;5071387;27;45348;-65
2024/03/08 07:17:13;;;;;;;;;54.50;37.50;;;;;6.49;68.94;99995.66;5068354;28;46029;-65
2024/03/08 07:19:39;;;;;;;;;61.25;39.25;;;;;6.52;68.83;100009.44;5063520;27;46424;-65
2024/03/08 07:22:08;;;;;;;;;59.00;37.00;;;;;6.55;68.91;99998.13;5065233;28;45452;-66
2024/03/08 07:27:05;;;;;;;;;41.25;33.75;;;;;6.57;68.86;99996.34;5072651;27;45663;-64
2024/03/08 07:29:32;;;;;;;;;58.50;37.25;;;;;6.60;68.54;99997.13;5090444;27;45443;-63
2024/03/08 07:32:20;;;;;;;;;47.25;38.00;;;;;6.64;68.25;99997.94;5067988;28;45518;-66
2024/03/08 07:34:48;;;;;;;;;58.00;37.50;;;;;6.66;68.30;99983.16;5077338;27;45415;-67
2024/03/08 07:37:13;;;;;;;;;50.25;32.00;;;;;6.68;68.26;99986.56;5073494;27;45437;-66
2024/03/08 07:39:39;;;;;;;;;46.00;37.00;;;;;6.73;68.16;99989.03;5091578;27;45385;-65
2024/03/08 07:42:04;;;;;;;;;47.25;36.75;;;;;6.72;68.10;99992.53;5066710;28;45461;-66
2024/03/08 07:44:31;;;;;;;;;44.25;34.25;;;;;6.76;67.90;99997.63;5061100;28;45369;-65
2024/03/08 07:46:57;;;;;;;;;46.75;33.50;;;;;6.78;68.02;99992.38;5072517;28;47235;-66
2024/03/08 07:49:22;;;;;;;;;45.25;27.75;;;;;6.80;68.15;99999.28;5063113;28;45502;-66
2024/03/08 07:51:48;;;;;;;;;48.25;34.50;;;;;6.87;68.00;99989.59;5076833;28;67982;-60
2024/03/08 07:54:14;;;;;;;;;45.50;34.50;;;;;6.91;68.10;99992.97;5065760;27;46943;-60
2024/03/08 07:56:39;;;;;;;;;48.50;34.75;;;;;6.98;68.03;99997.97;5070708;27;46254;-61
2024/03/08 07:59:05;;;;;;;;;50.00;35.00;;;;;7.04;67.88;99991.78;5065393;28;45214;-59
2024/03/08 08:01:30;;;;;;;;;40.75;31.75;;;;;7.11;67.77;99989.88;5071218;27;45271;-61
2024/03/08 08:03:56;;;;;;;;;43.75;32.75;;;;;7.13;67.56;99986.34;5084891;27;45335;-61
2024/03/08 08:06:22;;;;;;;;;45.25;33.75;;;;;7.20;67.34;99989.66;5065887;28;46350;-60
2024/03/08 08:08:47;;;;;;;;;47.75;32.75;;;;;7.23;67.28;99974.81;5074799;27;51595;-60
2024/03/08 08:11:12;;;;;;;;;44.25;32.00;;;;;7.27;67.18;99980.78;5071983;27;45394;-61
2024/03/08 08:13:38;;;;;;;;;48.00;36.00;;;;;7.32;67.07;99981.53;5077626;27;45343;-61
2024/03/08 08:16:06;;;;;;;;;44.50;34.50;;;;;7.37;66.92;99974.47;5082242;27;46875;-59
2024/03/08 08:18:33;;;;;;;;;47.25;32.00;;;;;7.43;66.82;99970.84;5082354;27;45949;-59
2024/03/08 08:21:00;;;;;;;;;31.00;28.75;;;;;7.49;67.01;99973.28;5067238;27;45486;-59
2024/03/08 08:23:25;;;;;;;;;47.50;36.00;;;;;7.55;66.59;99965.31;5070770;27;45252;-58
2024/03/08 08:25:50;;;;;;;;;44.00;29.75;;;;;7.58;66.41;99949.59;5072218;27;45364;-58
2024/03/08 08:28:19;;;;;;;;;41.25;34.50;;;;;7.65;66.33;99954.63;5064310;27;72725;-58
2024/03/08 08:30:44;;;;;;;;;44.75;35.00;;;;;7.70;66.41;99953.63;5076303;27;59925;-58
2024/03/08 08:33:10;;;;;;;;;39.75;32.75;;;;;7.77;66.12;99954.28;5069340;27;45467;-60
2024/03/08 08:35:38;;;;;;;;;39.50;32.50;;;;;7.82;65.83;99954.16;5074287;27;62293;-59
2024/03/08 08:38:09;;;;;;;;;45.00;30.00;;;;;7.92;66.09;99953.88;5074405;27;72221;-53
2024/03/08 08:40:35;;;;;;;;;44.50;29.75;;;;;8.01;65.68;99957.97;5072568;28;45421;-58
2024/03/08 08:43:04;;;;;;;;;44.00;31.25;;;;;8.08;65.76;99951.66;5068775;27;45682;-60
2024/03/08 08:45:30;;;;;;;;;42.00;32.25;;;;;8.16;65.38;99941.88;5075174;27;47196;-59
2024/03/08 08:47:55;;;;;;;;;47.00;35.75;;;;;8.23;65.30;99941.69;5068896;27;45276;-59
2024/03/08 08:50:23;;;;;;;;;43.75;34.00;;;;;8.30;65.24;99936.22;5076334;27;45217;-58
2024/03/08 08:52:49;;;;;;;;;39.75;30.00;;;;;8.40;65.15;99930.75;5072139;27;45721;-61
2024/03/08 08:55:14;;;;;;;;;47.75;35.25;;;;;8.46;65.00;99931.41;5073263;27;46375;-58
2024/03/08 08:57:43;;;;;;;;;42.75;32.75;;;;;8.53;64.83;99925.16;5069608;27;45376;-60
2024/03/08 09:00:14;;;;;;;;;38.75;30.00;;;;;8.60;64.61;99920.56;5065908;27;46247;-62
2024/03/08 09:02:40;;;;;;;;;45.00;33.50;;;;;8.67;64.69;99921.22;5068744;27;45503;-66
2024/03/08 09:05:07;;;;;;;;;44.25;32.00;;;;;8.71;64.35;99908.03;5069374;27;46953;-65
2024/03/08 09:07:33;;;;;;;;;48.50;30.75;;;;;8.79;64.51;99915.59;5073120;27;45497;-62
2024/03/08 09:09:59;;;;;;;;;42.50;30.00;;;;;8.84;64.10;99905.03;5075650;27;45388;-63
2024/03/08 09:12:25;;;;;;;;;39.50;27.00;;;;;8.91;63.95;99896.94;5077683;27;45520;-65
2024/03/08 09:14:50;;;;;;;;;49.67;36.33;;;;;8.95;63.72;99902.06;5076443;28;75131;-63
2024/03/08 09:17:20;;;;;;;;;34.75;26.75;;;;;8.96;63.83;99893.31;5068809;27;45274;-64
2024/03/08 09:19:48;;;;;;;;;47.25;30.75;;;;;9.01;63.60;99887.06;5061756;28;45430;-64
2024/03/08 09:22:14;;;;;;;;;39.25;32.00;;;;;9.08;63.43;99890.28;5070484;28;73049;-68
2024/03/08 09:24:39;;;;;;;;;34.75;29.50;;;;;9.16;63.34;99888.28;5073524;28;46615;-69
2024/03/08 09:27:05;;;;;;;;;41.75;29.50;;;;;9.24;63.24;99877.56;5067932;28;62638;-70
2024/03/08 09:29:30;;;;;;;;;44.00;32.00;;;;;9.32;63.11;99876.38;5077600;27;45568;-68
2024/03/08 09:31:55;;;;;;;;;42.50;33.25;;;;;9.41;62.87;99869.13;5066622;28;45641;-68
2024/03/08 09:34:21;;;;;;;;;44.25;28.25;;;;;9.54;63.00;99877.38;5076369;27;45397;-69
2024/03/08 09:36:46;;;;;;;;;44.25;31.50;;;;;9.60;62.58;99870.16;5068304;28;45298;-67
2024/03/08 09:39:16;;;;;;;;;35.75;28.00;;;;;9.69;62.74;99868.97;5062215;28;45445;-63
2024/03/08 09:41:47;;;;;;;;;33.75;30.00;;;;;9.76;62.30;99872.22;5068481;28;45376;-64
2024/03/08 09:44:14;;;;;;;;;37.00;28.00;;;;;9.87;62.39;99868.28;5064497;27;46207;-63
2024/03/08 09:46:40;;;;;;;;;36.25;27.50;;;;;9.99;62.05;99866.97;5063377;27;45360;-65
2024/03/08 09:49:05;;;;;;;;;31.75;26.75;;;;;10.06;62.04;99854.50;5075019;27;45659;-66
2024/03/08 09:51:35;;;;;;;;;39.00;27.00;;;;;10.24;61.86;99850.31;5080640;27;45448;-64
2024/03/08 09:54:00;;;;;;;;;32.00;26.75;;;;;10.36;61.46;99852.47;5071421;27;45497;-64
2024/03/08 09:56:27;;;;;;;;;30.75;26.25;;;;;10.50;61.26;99845.81;5065411;28;46870;-65
2024/03/08 10:01:38;;;;;;;;;27.75;26.00;;;;;10.81;60.82;99837.53;5070760;27;45402;-65
2024/03/08 10:04:04;;;;;;;;;27.50;21.00;;;;;10.94;60.32;99822.16;5075395;28;46278;-69
2024/03/08 10:06:29;;;;;;;;;35.00;23.25;;;;;11.06;60.19;99832.09;5065184;28;45523;-67
2024/03/08 10:08:55;;;;;;;;;27.25;22.25;;;;;11.15;59.98;99828.22;5063586;27;66460;-65
2024/03/08 10:11:20;;;;;;;;;28.75;21.50;;;;;11.24;59.70;99813.88;5072906;28;46223;-67
2024/03/08 10:13:47;;;;;;;;;35.00;25.25;;;;;11.36;59.32;99818.56;5084527;27;47065;-67
2024/03/08 10:16:13;;;;;;;;;29.75;24.50;;;;;11.47;59.14;99811.06;5066733;28;45408;-67
2024/03/08 10:18:38;;;;;;;;;26.50;19.25;;;;;11.58;59.25;99816.69;5068477;27;45562;-67
2024/03/08 10:21:07;;;;;;;;;21.50;18.50;;;;;11.71;58.70;99813.50;5063456;28;45633;-67
2024/03/08 10:23:33;;;;;;;;;21.00;17.25;;;;;11.83;58.42;99815.53;5069082;28;45903;-67
2024/03/08 10:26:09;;;;;;;;;22.25;19.00;;;;;12.00;58.57;99811.28;5060161;28;45965;-64
2024/03/08 10:28:35;;;;;;;;;22.50;19.00;;;;;12.08;57.95;99802.16;5070551;27;45433;-63
2024/03/08 10:31:00;;;;;;;;;24.75;21.50;;;;;12.17;57.52;99794.75;5058048;28;45510;-65
2024/03/08 10:33:25;;;;;;;;;23.25;17.25;;;;;12.23;57.45;99795.28;5060029;28;75795;-65
2024/03/08 10:35:51;;;;;;;;;22.25;18.00;;;;;12.29;57.59;99795.00;5072480;28;73195;-62
2024/03/08 10:38:20;;;;;;;;;24.25;17.50;;;;;12.35;57.24;99789.44;5077389;27;45599;-62
2024/03/08 10:40:50;;;;;;;;;22.50;19.25;;;;;12.45;57.25;99781.97;5064536;28;45644;-63
2024/03/08 10:43:29;;;;;;;;;24.50;20.50;;;;;12.54;57.00;99785.91;5061681;28;47022;-65
2024/03/08 10:46:06;;;;;;;;;22.50;17.50;;;;;12.63;57.18;99779.34;5062126;28;45298;-66
2024/03/08 10:48:32;;;;;;;;;24.75;16.00;;;;;12.70;56.66;99778.94;5071292;27;45377;-64
2024/03/08 10:50:59;;;;;;;;;27.25;21.50;;;;;12.79;56.94;99775.00;5067007;28;45770;-64
2024/03/08 10:53:27;;;;;;;;;21.50;18.00;;;;;12.86;56.43;99773.75;5059483;28;46363;-64
2024/03/08 10:55:53;;;;;;;;;21.25;20.25;;;;;12.91;56.25;99766.50;5062684;28;45371;-65
2024/03/08 10:58:26;;;;;;;;;27.75;21.50;;;;;12.97;56.22;99767.09;5068551;28;45322;-64
2024/03/08 11:00:53;;;;;;;;;27.50;17.00;;;;;13.02;55.68;99767.72;5064715;28;45339;-65
2024/03/08 11:03:44;;;;;;;;;15.75;10.25;;;;;13.08;55.95;99767.38;5059136;28;46166;-65
2024/03/08 11:06:36;;;;;;;;;18.00;12.00;;;;;13.18;56.15;99763.34;5061351;28;45917;-65
2024/03/08 11:09:02;;;;;;;;;22.25;17.25;;;;;13.26;55.37;99758.53;5067004;27;45527;-62
2024/03/08 11:11:34;;;;;;;;;18.75;18.50;;;;;13.34;55.78;99747.63;5074332;28;45525;-65
2024/03/08 11:13:59;;;;;;;;;13.25;12.25;;;;;13.38;55.52;99743.88;5068663;28;47064;-62
2024/03/08 11:16:24;;;;;;;;;23.50;16.75;;;;;13.47;55.38;99747.78;5065014;28;45498;-65
2024/03/08 11:18:50;;;;;;;;;16.67;13.67;;;;;13.56;55.21;99743.81;5067535;27;45441;-62
2024/03/08 11:21:17;;;;;;;;;15.50;14.25;;;;;13.64;54.80;99744.25;5068613;27;45682;-62